createdAt,value
2018-07-10T00:01:27.823Z,97690.62
2018-07-10T00:04:07.142Z,97689.54
2018-07-10T00:08:49.815Z,97688.86
2018-07-10T00:11:28.709Z,97685.02
2018-07-10T00:13:57.687Z,97684.80
2018-07-10T00:16:26.999Z,97684.80
2018-07-10T00:18:56.542Z,97679.06
2018-07-10T00:21:25.730Z,97684.48
2018-07-10T00:23:54.915Z,97687.03
2018-07-10T00:26:24.180Z,97682.79
2018-07-10T00:28:53.676Z,97680.60
2018-07-10T00:31:23.033Z,97683.00
2018-07-10T00:33:52.276Z,97680.81
2018-07-10T00:36:21.622Z,97683.48
2018-07-10T00:38:58.767Z,97679.77
2018-07-10T00:41:30.856Z,97676.98
2018-07-10T00:44:00.613Z,97671.77
2018-07-10T00:46:30.968Z,97668.61
2018-07-10T00:49:00.166Z,97663.80
2018-07-10T00:51:29.840Z,97662.23
2018-07-10T00:53:59.174Z,97660.86
2018-07-10T00:56:28.126Z,97657.81
2018-07-10T00:58:57.555Z,97655.91
2018-07-10T01:01:27.212Z,97650.55
2018-07-10T01:03:56.263Z,97645.13
2018-07-10T01:06:25.295Z,97646.97
2018-07-10T01:08:54.554Z,97649.30
2018-07-10T01:11:23.840Z,97643.17
2018-07-10T01:13:53.095Z,97647.33
2018-07-10T01:16:27.544Z,97657.02
2018-07-10T01:18:59.304Z,97658.73
2018-07-10T01:21:28.474Z,97659.46
2018-07-10T01:23:59.878Z,97654.94
2018-07-10T01:26:35.423Z,97650.92
2018-07-10T01:29:10.918Z,97651.20
2018-07-10T01:31:42.073Z,97650.67
2018-07-10T01:34:11.266Z,97653.28
2018-07-10T01:36:40.203Z,97648.38
2018-07-10T01:39:09.255Z,97654.41
2018-07-10T01:41:38.501Z,97656.59
2018-07-10T01:44:07.662Z,97656.55
2018-07-10T01:46:36.635Z,97653.44
2018-07-10T01:49:05.879Z,97654.11
2018-07-10T01:51:35.663Z,97651.81
2018-07-10T01:54:04.953Z,97650.38
2018-07-10T01:56:34.242Z,97654.57
2018-07-10T01:59:03.375Z,97663.73
2018-07-10T02:01:32.602Z,97665.88
2018-07-10T02:04:02.053Z,97666.60
2018-07-10T02:06:31.465Z,97669.58
2018-07-10T02:09:00.424Z,97669.55
2018-07-10T02:11:29.771Z,97673.84
2018-07-10T02:13:58.952Z,97675.31
2018-07-10T02:16:28.102Z,97672.22
2018-07-10T02:18:57.341Z,97672.32
2018-07-10T02:21:26.337Z,97671.31
2018-07-10T05:35:56.586Z,97702.58
2018-07-10T05:38:31.250Z,97700.63
2018-07-10T05:41:01.058Z,97692.36
2018-07-10T05:43:30.430Z,97690.09
2018-07-10T05:45:59.558Z,97691.69
2018-07-10T05:48:29.915Z,97693.61
2018-07-10T05:50:59.062Z,97694.79
2018-07-10T05:53:28.198Z,97697.95
2018-07-10T05:55:57.422Z,97691.69
2018-07-10T05:58:26.700Z,97692.82
2018-07-10T06:00:55.957Z,97704.37
2018-07-10T06:03:25.070Z,97703.72
2018-07-10T06:05:54.264Z,97703.86
2018-07-10T06:08:23.240Z,97699.66
2018-07-10T06:10:52.502Z,97705.41
2018-07-10T06:13:21.758Z,97708.70
2018-07-10T06:15:51.060Z,97708.70
2018-07-10T06:18:20.031Z,97712.72
2018-07-10T06:20:49.225Z,97707.53
2018-07-10T06:23:21.038Z,97708.51
2018-07-10T06:25:50.719Z,97712.98
2018-07-10T06:28:28.452Z,97709.39
2018-07-10T06:31:02.111Z,97710.00
2018-07-10T06:33:31.355Z,97711.75
2018-07-10T06:36:18.651Z,97705.80
2018-07-10T06:38:49.301Z,97710.66
2018-07-10T06:41:18.367Z,97708.24
2018-07-10T06:43:56.648Z,97709.72
2018-07-10T06:46:44.585Z,97705.13
2018-07-10T06:49:27.321Z,97708.03
2018-07-10T06:52:06.311Z,97702.14
2018-07-10T06:54:49.321Z,97707.59
2018-07-10T06:57:18.906Z,97707.37
2018-07-10T06:59:48.219Z,97700.92
2018-07-10T07:02:17.367Z,97700.81
2018-07-10T07:04:46.343Z,97698.63
2018-07-10T07:07:15.801Z,97692.08
2018-07-10T07:09:44.830Z,97703.59
2018-07-10T07:12:14.503Z,97695.20
2018-07-10T07:14:43.728Z,97689.52
2018-07-10T07:17:12.984Z,97699.81
2018-07-10T07:19:42.357Z,97696.03
2018-07-10T07:22:11.381Z,97693.36
2018-07-10T07:24:40.683Z,97688.65
2018-07-10T07:27:09.862Z,97686.83
2018-07-10T07:29:38.886Z,97686.19
2018-07-10T07:32:08.171Z,97679.97
2018-07-10T07:34:37.446Z,97690.17
2018-07-10T07:37:06.878Z,97693.40
2018-07-10T07:39:36.143Z,97688.90
2018-07-10T07:42:05.213Z,97695.05
2018-07-10T07:44:34.429Z,97686.19
2018-07-10T07:47:03.667Z,97692.69
2018-07-10T07:49:33.056Z,97697.28
2018-07-10T07:52:02.239Z,97698.73
2018-07-10T07:54:31.516Z,97698.23
2018-07-10T07:57:00.411Z,97696.52
2018-07-10T07:59:29.847Z,97689.50
2018-07-10T08:01:59.146Z,97694.48
2018-07-10T08:04:28.400Z,97694.87
2018-07-10T08:06:57.796Z,97685.33
2018-07-10T08:09:26.822Z,97695.31
2018-07-10T08:11:56.073Z,97693.70
2018-07-10T08:14:25.286Z,97693.42
2018-07-10T08:16:54.918Z,97689.78
2018-07-10T08:19:24.254Z,97686.11
2018-07-10T08:21:53.582Z,97690.98
2018-07-10T08:24:24.977Z,97696.92
2018-07-10T08:26:57.189Z,97699.50
2018-07-10T08:29:26.798Z,97698.92
2018-07-10T08:31:56.276Z,97691.50
2018-07-10T08:34:27.047Z,97691.50
2018-07-10T08:36:56.166Z,97695.21
2018-07-10T08:39:25.614Z,97691.87
2018-07-10T08:41:54.923Z,97686.72
2018-07-10T08:44:24.363Z,97684.63
2018-07-10T08:46:57.130Z,97681.53
2018-07-10T08:49:29.448Z,97677.70
2018-07-10T08:51:58.537Z,97669.09
2018-07-10T08:54:27.627Z,97670.45
2018-07-10T08:56:56.870Z,97675.31
2018-07-10T08:59:26.126Z,97677.42
2018-07-10T09:01:55.360Z,97670.80
2018-07-10T09:04:24.650Z,97670.51
2018-07-10T09:06:53.878Z,97672.48
2018-07-10T09:09:23.288Z,97674.33
2018-07-10T09:11:52.582Z,97672.14
2018-07-10T09:14:21.923Z,97666.20
2018-07-10T09:16:51.572Z,97660.95
2018-07-10T09:19:26.263Z,97662.38
2018-07-10T09:21:58.595Z,97668.23
2018-07-10T09:24:27.933Z,97670.58
2018-07-10T09:26:57.191Z,97675.38
2018-07-10T09:29:26.319Z,97671.23
2018-07-10T09:31:56.096Z,97671.16
2018-07-10T09:34:25.215Z,97659.56
2018-07-10T09:36:54.454Z,97663.51
2018-07-10T09:39:23.826Z,97665.37
2018-07-10T09:41:53.120Z,97671.28
2018-07-10T09:44:22.194Z,97666.70
2018-07-10T09:46:51.553Z,97663.45
2018-07-10T09:49:20.654Z,97659.80
2018-07-10T09:51:50.016Z,97658.98
2018-07-10T09:54:19.245Z,97665.50
2018-07-10T09:56:48.544Z,97661.61
2018-07-10T09:59:17.768Z,97657.85
2018-07-10T10:01:47.237Z,97655.95
2018-07-10T10:04:16.612Z,97652.27
2018-07-10T10:06:45.839Z,97647.69
2018-07-10T10:09:15.222Z,97643.24
2018-07-10T10:11:44.294Z,97643.45
2018-07-10T10:14:13.757Z,97647.00
2018-07-10T10:16:43.075Z,97645.59
2018-07-10T10:19:12.215Z,97643.21
2018-07-10T10:21:41.476Z,97645.45
2018-07-10T10:24:10.609Z,97635.75
2018-07-10T10:26:39.980Z,97627.27
2018-07-10T10:29:09.368Z,97630.87
2018-07-10T10:31:38.664Z,97617.39
2018-07-10T10:34:07.742Z,97624.38
2018-07-10T10:36:36.823Z,97628.48
2018-07-10T10:39:06.284Z,97628.38
2018-07-10T10:41:35.377Z,97626.98
2018-07-10T10:44:04.660Z,97629.45
2018-07-10T10:46:34.211Z,97629.02
2018-07-10T10:49:03.548Z,97626.44
2018-07-10T10:51:32.887Z,97626.18
2018-07-10T10:54:02.482Z,97612.56
2018-07-10T10:56:31.790Z,97614.95
2018-07-10T10:59:01.204Z,97617.98
2018-07-10T11:01:30.755Z,97614.17
2018-07-10T11:04:00.052Z,97614.02
2018-07-10T11:06:30.463Z,97612.19
2018-07-10T11:09:00.276Z,97610.67
2018-07-10T11:11:31.303Z,97608.08
2018-07-10T11:14:02.033Z,97607.80
2018-07-10T11:16:31.126Z,97604.75
2018-07-10T11:19:25.543Z,97610.05
2018-07-10T11:22:04.450Z,97609.30
2018-07-10T11:24:48.664Z,97607.52
2018-07-10T11:27:28.759Z,97605.56
2018-07-10T11:29:58.050Z,97605.20
2018-07-10T11:32:27.285Z,97599.98
2018-07-10T11:34:56.485Z,97597.27
2018-07-10T11:37:25.833Z,97593.95
2018-07-10T11:39:55.174Z,97584.67
2018-07-10T11:42:24.650Z,97581.09
2018-07-10T11:44:54.101Z,97578.02
2018-07-10T11:47:23.380Z,97584.58
2018-07-10T11:49:52.705Z,97574.39
2018-07-10T11:52:21.832Z,97577.66
2018-07-10T11:54:51.135Z,97577.82
2018-07-10T11:57:20.743Z,97573.40
2018-07-10T11:59:50.000Z,97570.46
2018-07-10T12:02:19.307Z,97571.52
2018-07-10T12:04:48.549Z,97574.61
2018-07-10T12:07:17.685Z,97569.27
2018-07-10T12:09:57.579Z,97574.82
2018-07-10T12:12:26.814Z,97583.30
2018-07-10T12:14:56.119Z,97572.78
2018-07-10T12:17:25.334Z,97580.31
2018-07-10T12:19:54.602Z,97584.13
2018-07-10T12:22:23.830Z,97570.08
2018-07-10T12:24:53.010Z,97576.27
2018-07-10T12:27:22.239Z,97569.13
2018-07-10T12:29:51.498Z,97565.38
2018-07-10T12:32:20.703Z,97566.42
2018-07-10T12:34:49.884Z,97561.03
2018-07-10T12:37:19.080Z,97559.88
2018-07-10T12:39:48.072Z,97556.35
2018-07-10T12:42:17.254Z,97560.48
2018-07-10T12:44:46.390Z,97554.98
2018-07-10T12:47:15.629Z,97561.87
2018-07-10T12:49:44.835Z,97560.57
2018-07-10T12:52:13.980Z,97553.52
2018-07-10T12:54:42.976Z,97564.39
2018-07-10T12:57:12.983Z,97555.59
2018-07-10T12:59:42.409Z,97561.16
2018-07-10T13:02:11.807Z,97552.95
2018-07-10T13:04:41.072Z,97559.70
2018-07-10T13:07:10.168Z,97557.56
2018-07-10T13:09:39.398Z,97555.13
2018-07-10T13:12:08.520Z,97557.47
2018-07-10T13:14:37.378Z,97557.60
2018-07-10T13:17:06.643Z,97549.41
2018-07-10T13:19:37.135Z,97552.70
2018-07-10T13:22:06.640Z,97546.33
2018-07-10T13:24:35.763Z,97549.44
2018-07-10T13:27:05.165Z,97546.00
2018-07-10T13:29:34.468Z,97548.52
2018-07-10T13:32:03.737Z,97548.72
2018-07-10T13:34:33.091Z,97546.23
2018-07-10T13:37:02.333Z,97548.44
2018-07-10T13:39:31.666Z,97550.82
2018-07-10T13:42:00.842Z,97547.37
2018-07-10T13:44:30.133Z,97544.93
2018-07-10T13:46:59.095Z,97537.59
2018-07-10T13:49:28.319Z,97543.52
2018-07-10T13:51:57.717Z,97544.35
2018-07-10T13:54:27.015Z,97541.69
2018-07-10T13:56:56.192Z,97543.89
2018-07-10T13:59:27.248Z,97542.04
2018-07-10T14:01:56.672Z,97541.91
2018-07-10T14:04:25.494Z,97543.20
2018-07-10T14:06:54.543Z,97540.17
2018-07-10T14:09:23.730Z,97547.44
2018-07-10T14:11:53.055Z,97543.92
2018-07-10T14:14:22.407Z,97540.06
2018-07-10T14:16:51.643Z,97540.53
2018-07-10T14:19:20.929Z,97537.38
2018-07-10T14:21:50.275Z,97523.48
2018-07-10T14:24:19.349Z,97541.63
2018-07-10T14:26:48.630Z,97535.89
2018-07-10T14:29:17.900Z,97536.25
2018-07-10T14:31:47.014Z,97532.97
2018-07-10T14:34:16.043Z,97534.30
2018-07-10T14:36:45.244Z,97541.65
2018-07-10T14:39:14.542Z,97543.16
2018-07-10T14:41:43.814Z,97540.04
2018-07-10T14:44:13.623Z,97538.77
2018-07-10T14:46:42.821Z,97538.42
2018-07-10T14:49:12.172Z,97550.65
2018-07-10T14:51:44.339Z,97537.86
2018-07-10T14:54:13.585Z,97533.22
2018-07-10T14:56:43.050Z,97534.93
2018-07-10T14:59:12.703Z,97537.81
2018-07-10T15:01:41.843Z,97536.28
2018-07-10T15:04:11.152Z,97535.64
2018-07-10T15:06:40.417Z,97537.36
2018-07-10T15:09:10.242Z,97538.05
2018-07-10T15:11:39.546Z,97532.31
2018-07-10T15:14:10.085Z,97535.84
2018-07-10T15:16:44.281Z,97535.67
2018-07-10T15:19:13.218Z,97530.28
2018-07-10T15:21:42.533Z,97529.94
2018-07-10T15:24:11.715Z,97529.59
2018-07-10T15:26:40.781Z,97532.61
2018-07-10T15:29:10.122Z,97532.96
2018-07-10T15:31:39.410Z,97529.08
2018-07-10T15:34:08.714Z,97532.13
2018-07-10T15:36:37.650Z,97534.30
2018-07-10T15:39:06.829Z,97539.21
2018-07-10T15:41:36.004Z,97534.14
2018-07-10T15:44:05.180Z,97541.73
2018-07-10T15:46:34.122Z,97547.62
2018-07-10T15:49:03.212Z,97555.47
2018-07-10T15:51:32.467Z,97547.50
2018-07-10T15:54:01.675Z,97557.01
2018-07-10T15:56:30.922Z,97558.27
2018-07-10T15:59:00.180Z,97558.93
2018-07-10T16:01:29.523Z,97556.38
2018-07-10T16:03:58.766Z,97555.29
2018-07-10T16:06:30.568Z,97558.44
2018-07-10T16:09:30.846Z,97564.80
2018-07-10T16:12:03.419Z,97559.55
2018-07-10T16:14:33.068Z,97560.56
2018-07-10T16:17:06.891Z,97570.11
2018-07-10T16:19:44.933Z,97568.48
2018-07-10T16:22:17.779Z,97573.50
2018-07-10T16:24:50.658Z,97577.00
2018-07-10T16:27:25.043Z,97576.35
2018-07-10T16:29:54.207Z,97581.89
2018-07-10T16:32:23.608Z,97577.81
2018-07-10T16:34:53.032Z,97593.09
2018-07-10T16:37:22.606Z,97591.86
2018-07-10T16:39:51.748Z,97592.39
2018-07-10T16:42:25.935Z,97593.33
2018-07-10T16:44:55.021Z,97596.32
2018-07-10T16:47:28.670Z,97603.64
2018-07-10T16:50:01.912Z,97601.59
2018-07-10T16:52:44.338Z,97608.94
2018-07-10T16:55:13.662Z,97611.73
2018-07-10T16:57:43.694Z,97618.31
2018-07-10T17:00:12.949Z,97625.27
2018-07-10T17:02:42.262Z,97621.48
2018-07-10T17:05:11.453Z,97625.80
2018-07-10T17:07:40.481Z,97624.17
2018-07-10T17:10:09.714Z,97621.93
2018-07-10T17:12:38.983Z,97628.23
2018-07-10T17:15:08.649Z,97633.17
2018-07-10T17:17:37.826Z,97627.09
2018-07-10T17:20:11.447Z,97636.02
2018-07-10T17:22:40.492Z,97639.31
2018-07-10T17:25:10.125Z,97637.75
2018-07-10T17:27:41.435Z,97640.64
2018-07-10T17:30:10.691Z,97647.50
2018-07-10T17:32:40.035Z,97655.63
2018-07-10T17:35:09.340Z,97661.53
2018-07-10T17:37:43.482Z,97655.88
2018-07-10T17:40:12.702Z,97662.00
2018-07-10T17:42:42.238Z,97664.39
2018-07-10T17:45:12.779Z,97663.09
2018-07-10T17:47:41.874Z,97671.66
2018-07-10T17:50:11.165Z,97676.86
2018-07-10T17:52:40.264Z,97671.50
2018-07-10T17:55:09.555Z,97675.08
2018-07-10T17:57:39.467Z,97676.97
2018-07-10T18:00:08.728Z,97677.60
2018-07-10T18:02:37.657Z,97677.02
2018-07-10T18:05:07.005Z,97679.53
2018-07-10T18:07:36.211Z,97681.92
2018-07-10T18:10:05.496Z,97679.87
2018-07-10T18:12:34.771Z,97678.56
2018-07-10T18:15:03.599Z,97690.29
2018-07-10T18:17:32.872Z,97691.39
2018-07-10T18:20:02.587Z,97697.25
2018-07-10T18:22:31.635Z,97696.26
2018-07-10T18:25:00.876Z,97697.45
2018-07-10T18:27:30.094Z,97704.63
2018-07-10T18:29:59.038Z,97698.94
2018-07-10T18:32:27.963Z,97696.26
2018-07-10T18:34:57.021Z,97706.23
2018-07-10T18:37:26.260Z,97711.97
2018-07-10T18:39:55.557Z,97717.55
2018-07-10T18:42:24.864Z,97721.11
2018-07-10T18:44:53.763Z,97724.30
2018-07-10T18:47:22.820Z,97730.39
2018-07-10T18:49:54.035Z,97730.02
2018-07-10T18:52:25.013Z,97736.70
2018-07-10T18:54:54.006Z,97735.84
2018-07-10T18:59:34.123Z,97743.31
2018-07-10T19:02:11.430Z,97743.06
2018-07-10T19:05:07.438Z,97751.73
2018-07-10T19:07:39.661Z,97758.42
2018-07-10T19:10:08.556Z,97762.53
2018-07-10T19:12:38.146Z,97763.86
2018-07-10T19:15:07.685Z,97761.84
2018-07-10T19:17:37.260Z,97758.30
2018-07-10T19:20:09.379Z,97765.47
2018-07-10T19:22:54.352Z,97766.19
2018-07-10T19:25:24.150Z,97765.59
2018-07-10T19:27:55.754Z,97768.27
2018-07-10T19:30:40.305Z,97762.94
2018-07-10T19:33:09.442Z,97762.13
2018-07-10T19:35:38.698Z,97764.67
2018-07-10T19:38:07.899Z,97769.81
2018-07-10T19:40:37.089Z,97771.88
2018-07-10T19:43:06.435Z,97774.69
2018-07-10T19:45:35.766Z,97765.69
2018-07-10T19:48:05.604Z,97773.95
2018-07-10T19:50:39.850Z,97776.15
2018-07-10T19:53:09.125Z,97776.97
2018-07-10T19:55:41.186Z,97774.56
2018-07-10T19:58:30.413Z,97782.58
2018-07-10T20:01:10.567Z,97778.70
2018-07-10T20:04:46.871Z,97779.69
2018-07-10T20:07:22.843Z,97792.19
2018-07-10T20:09:56.537Z,97790.03
2018-07-10T20:12:41.601Z,97790.86
2018-07-10T20:17:20.755Z,97783.95
2018-07-10T20:20:05.089Z,97783.83
2018-07-10T20:25:13.346Z,97784.08
2018-07-10T20:27:49.595Z,97780.67
2018-07-10T20:31:34.670Z,97780.16
2018-07-10T20:34:17.936Z,97776.88
2018-07-10T20:36:52.927Z,97777.73
2018-07-10T20:39:22.975Z,97781.27
2018-07-10T20:41:52.233Z,97784.80
2018-07-10T20:44:21.458Z,97780.78
2018-07-10T20:46:55.243Z,97781.86
2018-07-10T20:49:33.847Z,97786.12
2018-07-10T20:52:05.900Z,97783.45
2018-07-10T20:54:44.071Z,97772.05
2018-07-10T20:57:23.562Z,97772.88
2018-07-10T20:59:57.738Z,97774.94
2018-07-10T21:03:39.366Z,97782.09
2018-07-10T21:06:21.064Z,97775.30
2018-07-10T21:09:13.026Z,97776.88
2018-07-10T21:12:49.249Z,97773.48
2018-07-10T21:15:22.902Z,97777.72
2018-07-10T21:17:56.892Z,97767.05
2018-07-10T21:20:31.414Z,97772.26
2018-07-10T21:23:07.462Z,97771.66
2018-07-10T21:27:53.236Z,97768.98
2018-07-10T21:30:32.183Z,97772.02
2018-07-10T21:33:06.944Z,97776.41
2018-07-10T21:35:49.363Z,97772.41
2018-07-10T21:38:28.519Z,97769.00
2018-07-10T21:42:11.370Z,97773.59
2018-07-10T21:44:51.051Z,97770.77
2018-07-10T21:48:40.024Z,97778.92
2018-07-10T21:51:09.294Z,97778.19
2018-07-10T21:53:38.422Z,97781.59
2018-07-10T21:56:07.680Z,97775.90
2018-07-10T21:58:36.812Z,97780.12
2018-07-10T22:01:44.504Z,97780.25
2018-07-10T22:04:18.094Z,97779.52
2018-07-10T22:06:53.191Z,97782.67
2018-07-10T22:09:24.434Z,97782.20
2018-07-10T22:11:53.845Z,97774.55
2018-07-10T22:14:23.427Z,97769.70
2018-07-10T22:16:52.364Z,97767.87
2018-07-10T22:19:25.668Z,97769.58
2018-07-10T22:21:55.959Z,97772.58
2018-07-10T22:42:12.778Z,97754.67
2018-07-10T22:44:48.301Z,97756.39
2018-07-10T22:47:19.139Z,97758.67
2018-07-10T22:49:49.919Z,97759.16
2018-07-10T22:52:19.252Z,97754.06
2018-07-10T22:54:48.550Z,97757.06
2018-07-10T22:57:17.799Z,97756.41
2018-07-10T22:59:46.830Z,97755.91
2018-07-10T23:02:15.779Z,97761.13
2018-07-10T23:04:44.671Z,97757.48
2018-07-10T23:07:13.940Z,97759.41
2018-07-10T23:09:42.891Z,97759.66
2018-07-10T23:12:12.127Z,97758.18
2018-07-10T23:14:41.090Z,97763.16
2018-07-10T23:17:10.383Z,97764.83
2018-07-10T23:19:39.703Z,97765.42
2018-07-10T23:22:08.954Z,97762.06
2018-07-10T23:24:38.130Z,97759.52
2018-07-10T23:27:07.655Z,97755.52
2018-07-10T23:29:37.748Z,97761.09
2018-07-10T23:32:07.994Z,97756.25
2018-07-10T23:34:36.967Z,97758.30
2018-07-10T23:37:09.955Z,97760.00
2018-07-10T23:39:44.653Z,97762.69
2018-07-10T23:42:29.642Z,97769.20
2018-07-10T23:45:02.960Z,97766.66
2018-07-10T23:47:33.550Z,97767.61
2018-07-10T23:50:34.837Z,97767.87
2018-07-10T23:53:45.948Z,97767.04
2018-07-10T23:56:15.454Z,97768.23
2018-07-10T23:58:44.948Z,97768.14
